Airfield :
LOGIN :

Register | Disclaimer

   EN    FR    IT 

 










Legend :    VFR   Marginal VFR   IFR   Intensive IFR   Very Intensive IFR
Visi :
Ceiling :
>= 8 km
>= 3000ft
5 to 8 km
1000 to 3000 ft
1500m to 5 km
500 to 1000 ft
800 to 1500m
200 to 500 ft
< 800m
< 200 ft
Symbols :   Thunderstorms  Fog  Heavy snow  Heavy precipitations  Wind > 20 kt
SIGMETs :     Misc.  Thunderstorms  Icing  Turbulence  Mountain Waves  Volcanic Ashes







- Airport Elevation : 277 ft
- IATA code : JER
- Download approach charts


EGJJ - Jersey

CURRENT METAR :
  • 191150Z 20014KT 9999 FEW010 16/15 Q1004

EXPIRED METARs :
  • 191120Z 20012KT 9999 FEW007 SCT009 16/15 Q1004
  • 191050Z 20011KT 9999 FEW004 SCT005 15/15 Q1004
  • 191020Z 20010KT 9000 FEW004 SCT018 BKN046 15/15 Q1004 RERA
  • 190920Z 21011KT 6000 FEW002 SCT004 BKN010 16/16 Q1004

TAF TAF EGJJ
Valid from the 19 at 12:00 until the 19 at 21:00 UTC


191057Z 1912/1921 21012KT 9999 SCT005 BKN020
BECMG 1914/1916 18025KT 6000 -RA SCT005 BKN015
TEMPO 1916/1920 3000 RADZ BKN006
PROB30
TEMPO 1916/1920 2000 +RA BKN002
BECMG 1919/1921 24023KT
ATIS : +44 1534 498 073
No reported NOTAMs for that airfield.
1 SIGMET reported for the Brest FIR (LFRR) :
 
Severe turbulence
LFRR SIGMET 3 VALID 191000/191400 LFPW
LFRR BREST FIR/UIR SEV TURB FCST WI N4530 W00145 - N4330 W00145 - N4400 W00345 - N4530 W00345 FL220/330 MOV E 10KT NC=



MET'MAP, your aeronautical weather chart ! - Copyright ORBIFLY December 2007 - Disclaimer

ORBIFLY MET'MAP TEAM :

Programming & Development : Alexandra Zaïnal
Concept & Development : Baudouin d'Aumeries
Co-Development & Prog : Marc-Olivier Méhu
Technical & hardware support : Manuel Goepfert

Contact : metmap@orbifly.com




SOURCES & CREDITS :

   NOAA